Flight Track Log - Related Links

Times and Time Zones

All times are in EDT time to prevent confusion due to time zone crossing. See the JBU953 flight status page for this flight to view local times or setup timezone preferences in your user account.

Time Position Orientation Groundspeed Altitude Reporting Facility
EDT Latitude Longitude Course Direction KTS MPH feet Rate Location/Type
06:12AM 26.0780 -80.1200 82° East 162 186 1,400  Level FlightAware
06:12AM 26.0800 -80.1050 82° East 179 206 1,800 1,132 Climbing FlightAware
06:13AM 26.0850 -80.0710 81° East 227 261 2,400 1,385 Climbing FlightAware
06:13AM 26.0860 -80.0570 85° East 246 283 2,700 2,727 Climbing FlightAware
06:13AM 26.0810 -80.0130 97° East 263 303 4,400 3,828 Climbing FlightAware
06:14AM 26.0730 -79.9630 100° East 271 312 6,400 3,907 Climbing FlightAware
06:14AM 26.0700 -79.9400 98° East 276 318 7,200 2,864 Climbing FlightAware
06:14AM 26.0640 -79.9020 100° East 283 326 8,500 2,930 Climbing FlightAware
06:15AM 26.0600 -79.8790 101° East 285 328 9,300 2,250 Climbing FlightAware
06:15AM 26.0490 -79.8180 101° East 314 361 10,600 1,579 Climbing FlightAware
06:16AM 26.0390 -79.7570 100° East 351 404 11,300 1,950 Climbing FlightAware
06:17AM 26.0260 -79.6780 100° East 360 414 13,200 2,329 Climbing FlightAware
06:17AM 26.0130 -79.6010 101° East 375 432 14,600 1,917 Climbing FlightAware
06:18AM 26.0030 -79.5470 102° East 384 442 15,500 1,792 Climbing FlightAware
06:19AM 25.9810 -79.4720 108° East 392 451 16,900 1,683 Climbing FlightAware
06:19AM 25.9500 -79.4150 121° Southeast 400 460 17,800 1,846 Climbing FlightAware
06:20AM 25.8980 -79.3130 120° Southeast 407 468 19,700 2,082 Climbing FlightAware
06:21AM 25.8480 -79.2130 119° Southeast 419 482 21,200 1,780 Climbing FlightAware
06:22AM 25.8020 -79.1210 119° Southeast 427 491 22,400 1,342 Climbing FlightAware
06:22AM 25.7750 -79.0690 120° Southeast 435 501 22,900 1,406 Climbing FlightAware
06:23AM 25.7400 -78.9990 119° Southeast 435 501 23,900 1,792 Climbing FlightAware
06:23AM 25.6920 -78.9210 124° Southeast 430 495 25,200 1,756 Climbing FlightAware
06:24AM 25.6420 -78.8540 130° Southeast 429 494 26,300 1,314 Climbing FlightAware
06:25AM 25.5750 -78.7640 130° Southeast 434 499 27,500 1,167 Climbing FlightAware
06:26AM 25.5140 -78.6820 129° Southeast 440 506 28,400 909 Climbing FlightAware
06:27AM 25.4430 -78.5870 130° Southeast 445 512 29,000 396 Climbing FlightAware
06:27AM 25.4030 -78.5330 129° Southeast 445 512 29,000 1,324 Level FlightAware
06:28AM 25.3680 -78.4430 113° Southeast 443 510 30,500 1,563 Climbing FlightAware
06:29AM 25.3030 -78.3180 120° Southeast 447 514 31,500 600 Climbing FlightAware
06:30AM 25.2720 -78.2570 119° Southeast 447 514 31,500  Level FlightAware
06:30AM 25.2300 -78.1740 119° Southeast 447 514 31,500 1,553 Level FlightAware
06:31AM 25.2080 -78.0650 103° East 448 516 33,700 1,833 Climbing FlightAware
06:32AM 25.1860 -77.9990 110° East 448 516 33,700  Level FlightAware
06:33AM 25.1490 -77.8860 110° East 448 516 33,700  Level FlightAware
06:33AM 25.1280 -77.8240 111° Southeast 448 516 33,700  Level FlightAware
06:34AM 25.0990 -77.7340 110° East 448 516 33,700  Level FlightAware
06:35AM 25.0770 -77.6700 111° Southeast 448 516 33,700  Level FlightAware
06:36AM 25.0470 -77.5770 110° East 448 516 33,700  Level FlightAware
06:36AM 25.0250 -77.5110 110° East 448 516 33,700  Level FlightAware
06:37AM 25.0020 -77.4420 110° East 448 516 33,700  Level FlightAware
06:38AM 24.9730 -77.3540 110° East 448 516 33,700  Level FlightAware
06:38AM 24.9510 -77.2890 110° East 448 516 33,700  Level FlightAware
06:39AM 24.9220 -77.1990 110° East 448 516 33,700  Level FlightAware
06:40AM 24.8830 -77.0820 110° East 448 516 33,700 1,366 Level FlightAware
06:41AM 24.3664 -77.0392 110° East 462 532 37,000 1,404 Climbing Miami Center
06:42AM 24.3058 -76.9089 117° Southeast 462 532 37,000  Level Miami Center
06:43AM 24.2411 -76.7814 119° Southeast 467 537 37,000  Level Miami Center
06:44AM 24.1783 -76.6517 118° Southeast 473 544 37,000  Level Miami Center
06:45AM 24.1092 -76.5197 120° Southeast 468 539 37,000  Level Miami Center
06:46AM 24.0461 -76.3900 118° Southeast 468 539 37,000  Level Miami Center
06:47AM 23.9850 -76.2653 118° Southeast 468 539 37,000 -50 Level Miami Center
06:48AM 23.9197 -76.1428 120° Southeast 468 539 36,900  Descending Miami Center
06:49AM 23.8583 -76.0158 118° Southeast 468 539 37,000 50 Climbing Miami Center
06:50AM 23.8011 -75.9050 119° Southeast 468 539 37,000  Level Miami Center
06:51AM 23.7397 -75.7783 118° Southeast 468 539 37,000  Level Miami Center
06:52AM 23.6739 -75.6519 120° Southeast 468 539 37,000  Level Miami Center
06:53AM 23.6103 -75.5256 119° Southeast 468 539 37,000  Level Miami Center
06:54AM 23.5464 -75.4014 119° Southeast 468 539 37,000  Level Miami Center
06:55AM 23.4825 -75.2778 119° Southeast 468 539 37,000  Level Miami Center
06:56AM 23.4164 -75.1539 120° Southeast 468 539 37,000  Level Miami Center
06:57AM 23.3542 -75.0325 119° Southeast 468 539 37,000  Level Miami Center
06:58AM 23.2900 -74.9092 120° Southeast 468 539 37,000  Level Miami Center
06:59AM 23.2236 -74.7858 120° Southeast 468 539 37,000  Level Miami Center
07:00AM 23.1614 -74.6647 119° Southeast 468 539 37,000  Level Miami Center
07:01AM 23.0967 -74.5417 120° Southeast 468 539 37,000  Level Miami Center
07:02AM 23.0322 -74.4186 120° Southeast 463 533 37,000  Level Miami Center
07:03AM 22.9631 -74.2892 120° Southeast 463 533 37,000  Level Miami Center
07:04AM 22.9003 -74.1664 119° Southeast 463 533 37,000  Level Miami Center
07:05AM 22.8333 -74.0461 121° Southeast 463 533 37,000  Level Miami Center
07:06AM 22.7706 -73.9258 119° Southeast 463 533 37,000  Level Miami Center
07:07AM 22.7097 -73.8058 119° Southeast 463 533 37,000  Level Miami Center
07:08AM 22.6467 -73.6903 121° Southeast 463 533 37,000  Level Miami Center
07:09AM 22.5856 -73.5658 118° Southeast 463 533 37,000  Level Miami Center
07:10AM 22.5161 -73.4483 123° Southeast 458 527 37,000  Level Miami Center
07:11AM 22.4611 -73.3261 116° Southeast 453 521 37,000  Level Miami Center
07:12AM 22.3958 -73.2092 121° Southeast 453 521 37,000  Level Miami Center
07:13AM 22.3322 -73.0919 120° Southeast 453 521 37,000  Level Miami Center
07:14AM 22.2667 -72.9725 121° Southeast 453 521 37,000  Level Miami Center
07:15AM 22.2053 -72.8556 120° Southeast 453 521 37,000  Level Miami Center
07:16AM 22.1436 -72.7408 120° Southeast 453 521 37,000  Level Miami Center
07:17AM 22.0800 -72.6242 120° Southeast 453 521 37,000  Level Miami Center
07:18AM 22.0161 -72.5075 121° Southeast 453 521 37,000  Level Miami Center
07:19AM 21.9542 -72.3889 119° Southeast 453 521 37,000  Level Miami Center
07:20AM 21.8903 -72.2725 121° Southeast 453 521 37,000  Level Miami Center
07:21AM 21.8261 -72.1539 120° Southeast 453 521 37,000  Level Miami Center
07:22AM 21.7619 -72.0378 121° Southeast 453 521 37,000  Level Miami Center
07:23AM 21.6956 -71.9197 121° Southeast 453 521 37,000  Level Miami Center
07:24AM 21.6333 -71.8061 120° Southeast 453 521 37,000  Level Miami Center
07:25AM 21.5689 -71.6881 120° Southeast 453 521 37,000  Level Miami Center
07:26AM 21.5044 -71.5700 120° Southeast 453 521 37,000  Level Miami Center
07:27AM 21.4400 -71.4567 121° Southeast 453 521 37,000  Level Miami Center
07:28AM 21.3733 -71.3392 121° Southeast 453 521 37,000  Level Miami Center
07:29AM 21.3022 -71.2242 124° Southeast 458 527 37,000  Level Miami Center
07:30AM 21.2417 -71.1044 118° Southeast 463 533 37,000  Level Miami Center
07:31AM 21.1808 -70.9869 119° Southeast 458 527 37,000  Level Miami Center
07:32AM 21.1181 -70.8719 120° Southeast 452 520 37,000  Level Miami Center
07:33AM 21.0553 -70.7592 121° Southeast 452 520 37,000  Level Miami Center
07:34AM 20.9903 -70.6444 121° Southeast 452 520 37,000  Level Miami Center
07:35AM 20.9272 -70.5319 121° Southeast 452 520 37,000  Level Miami Center
07:36AM 20.8642 -70.4172 120° Southeast 447 514 37,000  Level Miami Center
07:37AM 20.8008 -70.3006 120° Southeast 447 514 37,000  Level Miami Center
07:38AM 20.7358 -70.1886 122° Southeast 447 514 37,000  Level Miami Center
07:39AM 20.6703 -70.0722 121° Southeast 447 514 37,000  Level Miami Center
07:40AM 20.6069 -69.9603 121° Southeast 447 514 37,000  Level Miami Center
07:41AM 20.5414 -69.8442 121° Southeast 447 514 37,000  Level Miami Center
07:42AM 20.4758 -69.7325 122° Southeast 447 514 37,000  Level Miami Center
07:43AM 20.4122 -69.6189 121° Southeast 447 514 37,000  Level Miami Center
07:49AM 20.0560 -68.9950 121° Southeast 448 516 37,000  Level FlightAware
07:50AM 19.9860 -68.8710 121° Southeast 448 516 37,000  Level FlightAware
07:51AM 19.9360 -68.7840 121° Southeast 446 513 37,000  Level FlightAware
07:51AM 19.8920 -68.7060 121° Southeast 448 516 37,000  Level FlightAware
07:52AM 19.8480 -68.6300 122° Southeast 449 517 37,000  Level FlightAware
07:53AM 19.8010 -68.5480 121° Southeast 448 516 37,000  Level FlightAware
07:53AM 19.7710 -68.4950 121° Southeast 448 516 37,000  Level FlightAware
07:54AM 19.7280 -68.4190 121° Southeast 449 517 37,000  Level FlightAware
07:55AM 19.6810 -68.3370 121° Southeast 450 518 37,000  Level FlightAware
07:55AM 19.6330 -68.2540 122° Southeast 452 520 37,000  Level FlightAware
07:56AM 19.5800 -68.1620 121° Southeast 453 521 37,000  Level FlightAware
07:57AM 19.5410 -68.0940 121° Southeast 454 522 37,000  Level FlightAware
07:57AM 19.5150 -68.0480 121° Southeast 455 524 37,000 -512 Level FlightAware
07:58AM 19.4640 -67.9600 122° Southeast 456 525 36,300 -1,350 Descending FlightAware
07:59AM 19.4290 -67.8990 121° Southeast 452 520 35,200 -3,037 Descending FlightAware
08:00AM 19.3630 -67.7840 121° Southeast 460 529 32,200 -3,099 Descending FlightAware
08:00AM 19.3150 -67.7010 121° Southeast 449 517 30,500 -2,400 Descending FlightAware
08:01AM 19.2690 -67.6230 122° Southeast 442 509 28,800 -2,372 Descending FlightAware
08:02AM 19.2220 -67.5420 122° Southeast 434 499 27,100 -2,211 Descending FlightAware
08:02AM 19.1890 -67.4850 122° Southeast 423 487 26,000 -2,087 Descending FlightAware
08:03AM 19.1520 -67.4220 122° Southeast 413 475 24,700 -1,744 Descending FlightAware
08:04AM 19.1160 -67.3590 121° Southeast 402 463 23,500 -1,735 Descending FlightAware
08:04AM 19.0830 -67.3020 121° Southeast 396 456 22,300 -2,318 Descending FlightAware
08:05AM 19.0240 -67.2010 122° Southeast 383 441 20,100 -2,327 Descending FlightAware
08:06AM 18.9790 -67.1250 122° Southeast 373 429 18,500 -2,045 Descending FlightAware
08:07AM 18.9420 -67.0610 121° Southeast 361 415 17,100 -2,024 Descending FlightAware
08:07AM 18.9070 -67.0020 122° Southeast 357 411 15,700 -2,286 Descending FlightAware
08:08AM 18.8670 -66.9340 122° Southeast 357 411 13,900 -2,047 Descending FlightAware
08:09AM 18.8330 -66.8760 122° Southeast 340 391 12,800 -1,644 Descending FlightAware
08:09AM 18.8110 -66.8370 121° Southeast 333 383 11,900 -1,600 Descending FlightAware
08:10AM 18.7780 -66.7810 122° Southeast 320 368 10,800 -1,256 Descending FlightAware
08:11AM 18.7420 -66.7200 122° Southeast 286 329 10,100 -857 Descending FlightAware
08:11AM 18.7280 -66.6970 123° Southeast 273 314 9,900 -1,149 Descending FlightAware
08:11AM 18.7090 -66.6650 122° Southeast 268 308 9,200 -1,552 Descending FlightAware
08:12AM 18.6900 -66.6320 121° Southeast 266 306 8,400 -1,448 Descending FlightAware
08:12AM 18.6720 -66.6020 122° Southeast 262 302 7,800 -1,333 Descending FlightAware
08:13AM 18.6620 -66.5840 120° Southeast 261 300 7,400 -1,200 Descending FlightAware
08:13AM 18.6460 -66.5580 123° Southeast 258 297 6,900 -679 Descending FlightAware
08:14AM 18.6350 -66.5390 121° Southeast 263 303 6,800 -98 Descending FlightAware
08:14AM 18.6130 -66.5020 122° Southeast 262 302 6,800  Level FlightAware
08:15AM 18.5820 -66.4490 122° Southeast 251 289 6,800  Level FlightAware
08:15AM 18.5720 -66.4330 123° Southeast 244 281 6,800  Level FlightAware
08:16AM 18.5560 -66.4060 122° Southeast 234 269 6,800 -536 Level FlightAware
08:16AM 18.5340 -66.3680 121° Southeast 223 257 6,300 -1,855 Descending FlightAware
08:17AM 18.5180 -66.3400 121° Southeast 248 285 5,100 -1,345 Descending FlightAware
08:17AM 18.5020 -66.3130 122° Southeast 250 288 5,000 -1,571 Descending FlightAware
08:19AM 18.4380 -66.2060 122° Southeast 246 283 1,800 -1,778 Descending FlightAware
08:19AM 18.4350 -66.1930 104° East 231 266 1,800  Level FlightAware
08:19AM 18.4340 -66.1740 93° East 215 247 1,800 -353 Level FlightAware
08:20AM 18.4340 -66.1350 90° East 190 219 1,400 -333 Descending FlightAware
08:21AM 18.4340 -66.1080 90° East 164 189 1,400 -111 Level FlightAware
08:21AM 18.4340 -66.0930 90° East 142 163 1,300 -514 Descending FlightAware
08:21AM 18.4340 -66.0830 90° East 138 159 1,100 -889 Descending FlightAware
08:22AM 18.4340 -66.0490 90° East 130 150 500 -565 Descending FlightAware
08:23AM 18.4340 -66.0240 90° East 129 148 300 -261 Descending FlightAware
08:23AM 18.4340 -65.9970 90° East 41 47 -391 Descending FlightAware
08:24AM 18.4340 -65.9930 90° East 41 47  Level FlightAware

Login

Don't have an account? Register now (free) for customized features, flight alerts, and more!